• Join FlightAware (Why Join?)
  • Login
  • US Flag 
06:18PM EST


 

Airport Tracker/Info


-or-


 

Live Flight TrackerFlight Track Log ✈ SKW6226 ✈ 13-May-2013 ✈ KSFO - KPDX

Flight Track Log - Related Links

Times and Time Zones

All times are in EDT time to prevent confusion due to time zone crossing. See the SKW6226 flight status page for this flight to view local times or setup timezone preferences in your user account.

Time Position Orientation Groundspeed Altitude Reporting Facility
EDT Latitude Longitude Course Direction KTS MPH feet Rate Location/Type
12:47PM 37.6667 -122.3167 North 197 227 2,100  Level Northern Cal TRACON
12:48PM 37.6678 -122.3133 67° East 202 232 2,600 2,040 Climbing Oakland Center
12:49PM 37.7233 -122.2858 21° North 237 273 4,900 2,400 Climbing Oakland Center
12:50PM 37.7161 -122.3556 North  Level FlightAware Approximate
12:50PM 37.8108 -122.3142 346° North 269 310 7,600  Level Oakland Center
12:51PM 37.8504 -122.3500 North  Level FlightAware Approximate
12:51PM 37.8908 -122.3353 348° North 294 338 10,200  Level Oakland Center
12:52PM 37.9849 -122.3500 North  Level FlightAware Approximate
12:52PM 37.9792 -122.3306 North 319 367 12,500  Level Oakland Center
12:53PM 38.1169 -122.3333 North  Level FlightAware Approximate
12:53PM 38.0706 -122.3269 North 329 379 15,000  Level Oakland Center
12:54PM 38.1667 -122.3222 North 345 397 17,000 1,860 Climbing Oakland Center
12:55PM 38.2675 -122.3178 North 361 415 18,900 1,740 Climbing Oakland Center
12:56PM 38.3739 -122.3161 North 379 436 20,600 1,740 Climbing Oakland Center
12:57PM 38.5067 -122.3244 357° North 398 458 22,500 1,620 Climbing Oakland Center
12:58PM 38.6236 -122.3344 356° North 418 481 24,000 1,440 Climbing Oakland Center
12:59PM 38.7272 -122.3408 357° North 429 494 25,500 1,380 Climbing Oakland Center
01:00PM 38.8758 -122.3517 357° North 443 510 26,900 1,260 Climbing Oakland Center
01:01PM 39.0050 -122.3600 357° North 457 526 28,100 1,080 Climbing Oakland Center
01:02PM 39.1344 -122.3703 356° North 462 532 29,200 1,080 Climbing Oakland Center
01:03PM 39.2669 -122.3803 357° North 470 541 30,300 1,020 Climbing Oakland Center
01:04PM 39.4011 -122.3894 357° North 478 550 31,300 1,080 Climbing Oakland Center
01:05PM 39.5339 -122.3997 357° North 481 554 32,600 1,200 Climbing Oakland Center
01:06PM 39.6664 -122.4081 357° North 478 550 33,800 1,140 Climbing Oakland Center
01:07PM 39.7986 -122.4175 357° North 474 545 35,000 1,020 Climbing Oakland Center
01:08PM 39.9289 -122.4283 356° North 468 539 36,000 900 Climbing Oakland Center
01:09PM 40.0594 -122.4408 356° North 465 535 36,900 780 Climbing Oakland Center
01:10PM 40.1958 -122.4489 357° North 472 543 37,600 480 Climbing Oakland Center
01:11PM 40.3283 -122.4564 358° North 473 544 38,000 180 Climbing Oakland Center
01:12PM 40.4878 -122.4675 357° North 475 547 38,000  Level Oakland Center
01:13PM 40.6239 -122.4769 357° North 488 562 38,000  Level Oakland Center
01:14PM 40.7608 -122.4850 357° North 491 565 38,000  Level Oakland Center
01:15PM 40.8978 -122.4944 357° North 494 568 38,000  Level Oakland Center
01:16PM 41.0367 -122.5039 357° North 499 574 38,000  Level Oakland Center
01:17PM 41.1767 -122.5186 355° North 506 582 38,000  Level Oakland Center
01:19PM 41.3147 -122.5300 356° North 500 575 38,000  Level Oakland Center
01:19PM 41.4083 -122.5369 357° North 494 568 38,000  Level Seattle Center
01:20PM 41.5417 -122.5456 357° North 490 564 38,000  Level Seattle Center
01:21PM 41.6761 -122.5561 357° North 483 556 38,000  Level Seattle Center
01:22PM 41.8131 -122.5658 357° North 487 560 38,000  Level Seattle Center
01:23PM 41.9489 -122.5786 356° North 484 557 38,000  Level Seattle Center
01:24PM 42.0883 -122.5883 357° North 493 567 38,000  Level Seattle Center
01:25PM 42.2267 -122.5983 357° North 493 567 38,000  Level Seattle Center
01:27PM 42.5058 -122.6192 357° North 501 577 38,000  Level Seattle Center
01:28PM 42.6450 -122.6297 357° North 503 579 38,000  Level Seattle Center
01:29PM 42.7906 -122.6431 356° North 496 571 38,000  Level Seattle Center
01:30PM 42.9292 -122.6539 357° North 499 574 38,000  Level Seattle Center
01:31PM 43.0700 -122.6631 357° North 504 580 38,000  Level Seattle Center
01:32PM 43.2111 -122.6753 356° North 507 583 38,000  Level Seattle Center
01:33PM 43.3508 -122.6869 357° North 505 581 38,000 -1,140 Level Seattle Center
01:34PM 43.4944 -122.6986 357° North 517 595 35,700 -2,280 Descending Seattle Center
01:35PM 43.6389 -122.7103 357° North 520 598 33,400 -2,400 Descending Seattle Center
01:36PM 43.7831 -122.7211 357° North 520 598 30,900 -2,520 Descending Seattle Center
01:37PM 43.9269 -122.7331 357° North 521 600 28,300 -2,640 Descending Seattle Center
01:38PM 44.0678 -122.7450 357° North 512 589 25,600 -2,580 Descending Seattle Center
01:39PM 44.2253 -122.7442 360° North 477 549 23,100 -2,280 Descending Seattle Center
01:40PM 44.3347 -122.7344 North 455 524 21,000 -2,100 Descending Seattle Center
01:41PM 44.4592 -122.7233 North 451 519 18,900 -1,920 Descending Seattle Center
01:42PM 44.5778 -122.7114 North 436 502 17,200 -1,860 Descending Seattle Center
01:43PM 44.6928 -122.6997 North 421 484 15,200 -2,220 Descending Seattle Center
01:44PM 44.7506 -122.6914 North 405 466 14,300 -1,980 Descending Seattle Center
01:44PM 44.8222 -122.6867 North 394 453 13,200 -1,560 Descending Seattle Center
01:45PM 44.8631 -122.6797 North 365 420 12,600 -1,200 Descending Seattle Center
01:45PM 44.9217 -122.6767 North 371 427 12,000 -1,020 Descending Seattle Center
01:46PM 44.9589 -122.6717 North 342 394 11,600 -1,140 Descending Seattle Center
01:46PM 45.0097 -122.6678 North 332 382 10,900 -1,140 Descending Seattle Center
01:47PM 45.0461 -122.6639 North 312 359 10,500 -1,140 Descending Seattle Center
01:48PM 45.0964 -122.6697 355° North 318 366 9,800 -1,200 Descending Seattle Center
01:48PM 45.1367 -122.6822 348° North 302 348 9,300 -1,140 Descending Seattle Center
01:49PM 45.1767 -122.6936 349° North 296 341 8,700 -1,020 Descending Seattle Center
01:49PM 45.2058 -122.7033 347° North 297 342 8,400 -1,200 Descending Seattle Center
01:50PM 45.2567 -122.7186 348° North 296 341 7,500 -1,380 Descending Seattle Center
01:50PM 45.2894 -122.7308 345° North 293 337 7,000 -1,320 Descending Seattle Center
01:51PM 45.3344 -122.7447 348° North 291 335 6,200 -1,320 Descending Seattle Center
01:51PM 45.3689 -122.7603 342° North 287 330 5,700 -1,200 Descending Seattle Center
01:52PM 45.4094 -122.7786 342° North 286 329 5,000 -720 Descending Seattle Center
01:52PM 45.4383 -122.7936 340° North 262 302 5,000 -120 Level Seattle Center
01:53PM 45.4761 -122.8111 342° North 265 305 4,900 -240 Descending Seattle Center
01:53PM 45.5033 -122.8258 339° North 246 283 4,800 -720 Descending Seattle Center
01:54PM 45.5386 -122.8436 341° North 247 284 4,200 -720 Descending Seattle Center
01:54PM 45.5625 -122.8728 319° Northwest 219 252 4,000 -720 Descending Seattle Center
01:55PM 45.5972 -122.9097 323° Northwest 229 264 3,500 -840 Descending Seattle Center
01:55PM 45.6225 -122.9133 354° North 206 237 3,100 -600 Descending Seattle Center
01:56PM 45.6478 -122.8994 21° North 207 238 2,900 -120 Descending Seattle Center
01:56PM 45.6642 -122.8719 50° Northeast 181 208 3,000  Climbing Seattle Center
01:57PM 45.6683 -122.8375 80° East 192 221 2,900 -180 Descending Seattle Center
01:57PM 45.6706 -122.7953 86° East 183 211 2,800 -420 Descending Seattle Center
01:58PM 45.6639 -122.7694 110° East 180 207 2,500 -480 Descending Seattle Center
01:58PM 45.6511 -122.7414 123° Southeast 157 181 2,400 -600 Descending Seattle Center
01:59PM 45.6414 -122.7164 119° Southeast 163 188 1,900 -840 Descending Seattle Center
01:59PM 45.6297 -122.6883 121° Southeast 134 154 1,500 -720 Descending Seattle Center
02:00PM 45.6222 -122.6689 119° Southeast 153 176 1,200 -720 Descending Seattle Center
02:00PM 45.6150 -122.6481 116° Southeast 128 147 900 -720 Descending Seattle Center
02:01PM 45.6053 -122.6239 120° Southeast 144 166 500 -720 Descending Seattle Center
02:01PM 45.5972 -122.6028 119° Southeast 129 148 200 -720 Descending Seattle Center
02:03PM 45.5887 -122.5969 103° East  Level Estimated